Time;durP1;ratioP1;P1;durP2;ratioP2;P2;SDS_P1;SDS_P2;PMS_P1;PMS_P2;Temp;Humidity;BMP_temperature;BMP_pressure;BME280_temperature;BME280_humidity;BME280_pressure;Samples;Min_cycle;Max_cycle;Signal;HPM_P1;HPM_P2
2023/08/21 00:00:15;;;;;;;20.35;12.75;;;;;;;27.26;62.88;98562.19;4432647;32;20093;-82
2023/08/21 00:02:42;;;;;;;19.15;13.13;;;;;;;26.79;64.89;98557.25;4432764;32;20141;-81
2023/08/21 00:05:09;;;;;;;19.30;13.50;;;;;;;26.92;64.99;98553.37;4432439;32;20062;-82
2023/08/21 00:07:36;;;;;;;20.33;12.75;;;;;;;26.58;66.49;98548.00;4418760;32;20086;-82
2023/08/21 00:10:03;;;;;;;20.30;13.23;;;;;;;26.96;65.02;98552.91;4432624;32;20101;-81
2023/08/21 00:12:30;;;;;;;20.90;14.05;;;;;;;27.14;64.47;98555.53;4431954;32;20058;-82
2023/08/21 00:14:57;;;;;;;19.25;13.73;;;;;;;26.93;65.10;98555.03;4432517;32;20101;-81
2023/08/21 00:17:24;;;;;;;18.83;13.95;;;;;;;27.15;64.39;98557.19;4431703;32;20113;-82
2023/08/21 00:19:51;;;;;;;20.40;13.95;;;;;;;27.16;63.89;98553.53;4432390;32;20104;-82
2023/08/21 00:22:18;;;;;;;21.98;14.82;;;;;;;27.56;62.41;98560.00;4432944;32;20110;-81
2023/08/21 00:24:45;;;;;;;19.48;13.32;;;;;;;27.12;64.38;98556.66;4433285;32;20071;-81
2023/08/21 00:27:13;;;;;;;20.17;13.32;;;;;;;27.27;63.55;98552.44;4432965;32;20062;-82
2023/08/21 00:29:40;;;;;;;19.65;13.93;;;;;;;27.47;62.86;98548.53;4419730;32;20062;-81
2023/08/21 00:32:07;;;;;;;19.52;13.75;;;;;;;27.59;62.65;98557.03;4433025;32;20145;-81
2023/08/21 00:34:34;;;;;;;19.65;13.20;;;;;;;27.76;61.60;98553.47;4432916;32;20111;-82
2023/08/21 00:37:01;;;;;;;18.37;12.37;;;;;;;27.85;61.29;98547.16;4432995;32;20106;-81
2023/08/21 00:39:28;;;;;;;19.12;13.55;;;;;;;27.70;61.53;98550.63;4432300;32;20082;-81
2023/08/21 00:41:54;;;;;;;19.85;12.73;;;;;;;27.90;60.88;98552.00;4432881;32;20109;-82
2023/08/21 00:44:21;;;;;;;21.95;13.98;;;;;;;27.74;61.59;98557.25;4432311;32;20124;-81
2023/08/21 00:46:48;;;;;;;19.10;13.68;;;;;;;27.67;61.66;98549.12;4432288;32;20172;-81
2023/08/21 00:49:15;;;;;;;22.55;13.48;;;;;;;27.70;61.58;98555.91;4432669;32;20714;-82
2023/08/21 00:51:43;;;;;;;18.58;13.07;;;;;;;28.04;60.27;98554.00;4433279;32;20118;-81
2023/08/21 00:54:09;;;;;;;17.80;13.30;;;;;;;27.82;60.63;98542.19;4432721;32;20689;-81
2023/08/21 00:56:36;;;;;;;19.23;12.90;;;;;;;27.68;61.31;98553.44;4432014;32;20115;-81
2023/08/21 00:59:04;;;;;;;17.25;12.95;;;;;;;27.24;62.71;98545.63;4418475;32;20145;-81
2023/08/21 01:01:31;;;;;;;19.50;13.65;;;;;;;27.58;61.80;98547.41;4431940;32;20101;-82
2023/08/21 01:03:58;;;;;;;17.92;12.32;;;;;;;27.59;61.68;98549.91;4417850;32;20128;-81
2023/08/21 01:06:25;;;;;;;17.95;11.88;;;;;;;28.30;59.62;98547.75;4431820;32;20084;-81
2023/08/21 01:09:24;;;;;;;16.58;12.18;;;;;;;28.02;60.39;98545.37;4418307;32;20083;-82
2023/08/21 01:12:03;;;;;;;17.73;12.32;;;;;;;28.15;59.88;98558.16;4419569;32;20717;-81
2023/08/21 01:14:43;;;;;;;19.77;12.48;;;;;;;28.04;59.41;98542.56;4420025;32;20121;-81
2023/08/21 01:17:12;;;;;;;16.95;12.20;;;;;;;27.49;61.67;98549.19;4416320;32;20137;-81
2023/08/21 01:19:44;;;;;;;18.30;12.63;;;;;;;28.06;59.43;98546.69;4417281;32;20086;-81
2023/08/21 01:22:11;;;;;;;18.00;12.43;;;;;;;28.06;59.10;98552.00;4417347;32;20105;-81
2023/08/21 01:24:38;;;;;;;18.00;12.05;;;;;;;27.79;59.75;98554.97;4416883;32;20132;-82
2023/08/21 01:27:05;;;;;;;18.10;12.48;;;;;;;27.23;61.42;98549.28;4417451;32;20098;-82
2023/08/21 01:29:33;;;;;;;18.12;12.98;;;;;;;27.47;60.02;98545.06;4417659;32;20104;-83
2023/08/21 01:32:32;;;;;;;20.92;12.40;;;;;;;28.07;58.35;98550.19;4416863;32;20165;-81
2023/08/21 01:35:00;;;;;;;18.15;12.35;;;;;;;28.10;57.98;98548.03;4414727;32;20090;-82
2023/08/21 01:37:28;;;;;;;18.70;11.77;;;;;;;27.84;58.62;98542.84;4416631;32;20380;-82
2023/08/21 01:39:58;;;;;;;17.42;11.48;;;;;;;28.56;55.46;98551.06;4416772;32;20122;-81
2023/08/21 01:42:25;;;;;;;18.15;10.68;;;;;;;28.48;55.25;98553.72;4417350;32;20071;-81
2023/08/21 01:44:52;;;;;;;15.90;10.70;;;;;;;27.98;56.94;98551.19;4417592;32;20736;-82
2023/08/21 01:47:19;;;;;;;18.00;11.30;;;;;;;27.53;58.49;98555.00;4417679;32;20806;-81
2023/08/21 01:49:45;;;;;;;18.70;11.50;;;;;;;27.36;59.30;98548.81;4417955;32;20126;-81
2023/08/21 01:52:12;;;;;;;18.17;10.30;;;;;;;27.41;59.17;98553.63;4417205;32;20086;-82
2023/08/21 01:54:39;;;;;;;17.60;10.60;;;;;;;27.92;57.05;98553.47;4417745;32;20097;-81
2023/08/21 01:57:07;;;;;;;16.87;10.57;;;;;;;28.49;54.23;98550.88;4416092;32;20118;-81
2023/08/21 01:59:34;;;;;;;18.52;10.63;;;;;;;28.46;54.55;98553.87;4416968;32;20178;-82
2023/08/21 02:02:01;;;;;;;16.45;10.40;;;;;;;28.69;53.57;98554.03;4417717;32;20109;-81
2023/08/21 02:04:28;;;;;;;16.67;10.32;;;;;;;28.34;54.74;98554.38;4417889;32;20098;-81
2023/08/21 02:06:55;;;;;;;15.63;10.20;;;;;;;28.55;53.82;98554.72;4417919;32;20093;-81
2023/08/21 02:09:22;;;;;;;17.73;10.30;;;;;;;28.61;53.64;98553.22;4417865;32;20079;-81
2023/08/21 02:11:49;;;;;;;16.27;9.77;;;;;;;28.22;54.86;98546.72;4417364;32;20108;-82
2023/08/21 02:14:16;;;;;;;17.92;10.60;;;;;;;28.94;52.47;98552.19;4417547;32;20097;-81
2023/08/21 02:16:44;;;;;;;15.77;10.20;;;;;;;27.97;55.07;98547.72;4417052;32;20149;-82
2023/08/21 02:19:11;;;;;;;19.42;9.98;;;;;;;28.56;53.27;98544.91;4431912;32;20097;-82
2023/08/21 02:21:38;;;;;;;15.75;10.00;;;;;;;28.55;53.21;98545.91;4432100;32;20128;-81
2023/08/21 02:24:05;;;;;;;16.92;9.57;;;;;;;28.45;53.46;98541.59;4431603;32;20094;-81
2023/08/21 02:26:31;;;;;;;16.08;10.30;;;;;;;28.89;52.11;98549.19;4430969;32;20156;-81
2023/08/21 02:28:58;;;;;;;15.07;10.32;;;;;;;28.61;52.58;98543.44;4431086;32;20053;-81
2023/08/21 02:31:25;;;;;;;15.73;10.00;;;;;;;28.46;53.14;98550.41;4431414;32;20098;-81
2023/08/21 02:33:52;;;;;;;15.43;9.75;;;;;;;28.19;53.93;98546.22;4430803;32;20109;-82
2023/08/21 02:36:19;;;;;;;16.85;9.90;;;;;;;28.74;52.23;98543.75;4431353;32;20161;-81
2023/08/21 02:38:46;;;;;;;17.87;10.20;;;;;;;27.94;54.38;98543.53;4418059;32;20058;-81
2023/08/21 02:41:13;;;;;;;15.40;10.10;;;;;;;28.43;52.97;98538.28;4431942;32;20137;-82
2023/08/21 02:43:43;;;;;;;15.15;10.07;;;;;;;28.27;53.47;98548.88;4432011;32;20061;-81
2023/08/21 02:46:10;;;;;;;16.48;10.05;;;;;;;28.32;53.47;98548.41;4431811;32;20769;-81
2023/08/21 02:48:37;;;;;;;16.85;9.45;;;;;;;28.28;53.70;98550.56;4431055;32;20147;-82
2023/08/21 02:51:04;;;;;;;15.05;9.60;;;;;;;28.16;54.17;98550.03;4431477;32;20145;-81
2023/08/21 02:53:31;;;;;;;15.65;10.50;;;;;;;27.61;55.48;98542.59;4431829;32;20112;-81
2023/08/21 02:55:58;;;;;;;15.73;9.60;;;;;;;27.92;54.80;98548.19;4431446;32;20066;-82
2023/08/21 02:58:25;;;;;;;18.08;9.98;;;;;;;27.90;54.81;98542.22;4431714;32;20077;-81
2023/08/21 03:00:52;;;;;;;14.20;9.88;;;;;;;28.10;53.89;98533.97;4431043;32;20124;-83
2023/08/21 03:03:19;;;;;;;14.93;9.93;;;;;;;27.89;54.69;98535.25;4431411;32;20123;-81
2023/08/21 03:05:46;;;;;;;15.88;9.52;;;;;;;28.38;53.05;98539.78;4431319;32;20104;-81
2023/08/21 03:08:13;;;;;;;15.52;9.60;;;;;;;28.52;52.75;98542.59;4419297;32;20143;-82
2023/08/21 03:10:40;;;;;;;16.58;9.23;;;;;;;28.14;53.55;98541.41;4433411;32;20129;-81
2023/08/21 03:13:07;;;;;;;15.98;9.55;;;;;;;27.69;54.78;98539.19;4433547;32;20145;-82
2023/08/21 03:15:35;;;;;;;15.05;10.20;;;;;;;27.97;54.35;98537.09;4432276;32;20078;-81
2023/08/21 03:18:02;;;;;;;14.00;9.27;;;;;;;27.88;54.57;98538.91;4418281;32;20058;-82
2023/08/21 03:20:29;;;;;;;14.85;9.23;;;;;;;28.25;53.52;98537.59;4432218;32;20093;-82
2023/08/21 03:22:56;;;;;;;18.20;9.75;;;;;;;28.20;53.51;98540.75;4417946;32;20797;-82
2023/08/21 03:25:23;;;;;;;15.93;10.52;;;;;;;28.21;53.19;98536.28;4431907;32;20121;-81
2023/08/21 03:27:50;;;;;;;16.98;10.85;;;;;;;28.07;53.65;98527.12;4431463;32;20145;-82
2023/08/21 03:30:17;;;;;;;15.55;9.60;;;;;;;27.86;54.55;98534.72;4431170;32;20109;-82
2023/08/21 03:32:44;;;;;;;15.20;9.82;;;;;;;27.83;54.57;98535.06;4431563;32;20141;-81
2023/08/21 03:35:11;;;;;;;15.65;10.02;;;;;;;28.32;53.42;98543.13;4431807;32;20788;-81
2023/08/21 03:37:38;;;;;;;14.73;10.05;;;;;;;27.03;57.00;98539.91;4431470;32;20114;-82
2023/08/21 03:40:05;;;;;;;15.23;9.95;;;;;;;26.84;57.64;98546.22;4431580;32;20062;-81
2023/08/21 03:42:32;;;;;;;16.55;10.18;;;;;;;27.05;57.12;98540.56;4431583;32;20089;-81
2023/08/21 03:44:59;;;;;;;15.15;9.57;;;;;;;27.32;56.47;98537.69;4431524;32;20122;-82
2023/08/21 03:47:26;;;;;;;15.25;10.13;;;;;;;27.25;56.40;98547.28;4431455;32;20082;-82
2023/08/21 03:49:53;;;;;;;15.93;9.93;;;;;;;26.99;57.48;98541.97;4430731;32;20733;-83
2023/08/21 03:52:20;;;;;;;16.52;10.80;;;;;;;27.04;57.11;98539.75;4431393;32;20166;-82
2023/08/21 03:54:47;;;;;;;16.37;9.85;;;;;;;27.34;56.33;98546.34;4431198;32;20104;-81
2023/08/21 03:57:14;;;;;;;15.35;9.88;;;;;;;27.62;55.25;98540.78;4431017;32;20114;-82
2023/08/21 03:59:41;;;;;;;15.73;10.73;;;;;;;27.44;55.43;98535.63;4431396;32;20666;-81
2023/08/21 04:02:08;;;;;;;16.50;10.50;;;;;;;27.05;56.55;98543.22;4431343;32;20455;-82
2023/08/21 04:04:34;;;;;;;15.52;10.45;;;;;;;27.26;56.19;98538.34;4431141;32;20066;-82
2023/08/21 04:07:01;;;;;;;15.65;10.02;;;;;;;26.94;56.85;98546.09;4431061;32;20070;-81
2023/08/21 04:09:28;;;;;;;15.73;10.43;;;;;;;27.32;55.70;98537.69;4431671;32;20111;-81
2023/08/21 04:11:55;;;;;;;15.60;10.32;;;;;;;26.94;56.74;98541.62;4431602;32;20089;-82
2023/08/21 04:14:22;;;;;;;16.02;9.45;;;;;;;27.23;55.83;98536.03;4432090;32;20082;-81
2023/08/21 04:16:49;;;;;;;15.63;9.95;;;;;;;26.27;59.34;98539.66;4432459;32;20094;-81
2023/08/21 04:19:16;;;;;;;16.58;9.15;;;;;;;27.08;56.77;98533.12;4431499;32;20157;-82
2023/08/21 04:21:43;;;;;;;14.95;9.23;;;;;;;27.40;55.68;98536.91;4432718;32;20089;-81
2023/08/21 04:24:10;;;;;;;15.02;8.93;;;;;;;27.22;56.69;98534.38;4432893;32;20165;-81
2023/08/21 04:26:37;;;;;;;13.30;8.90;;;;;;;27.96;53.98;98527.44;4432582;32;20134;-81
2023/08/21 04:29:04;;;;;;;15.10;8.50;;;;;;;27.76;54.48;98526.94;4432699;32;20162;-82
2023/08/21 04:31:31;;;;;;;14.95;9.40;;;;;;;27.98;53.55;98528.16;4432905;32;20102;-81
2023/08/21 04:33:58;;;;;;;17.85;9.60;;;;;;;27.72;54.69;98532.72;4418949;32;20158;-82
2023/08/21 04:36:25;;;;;;;16.50;9.43;;;;;;;27.38;55.95;98530.94;4433357;32;20193;-81
2023/08/21 04:38:51;;;;;;;16.52;9.00;;;;;;;27.37;56.20;98532.75;4433954;32;20101;-82
2023/08/21 04:41:19;;;;;;;17.90;9.65;;;;;;;27.54;55.13;98531.00;4433932;32;20093;-82
2023/08/21 04:43:45;;;;;;;16.23;9.43;;;;;;;27.54;54.94;98532.81;4433860;32;20118;-81
2023/08/21 04:46:13;;;;;;;14.35;9.18;;;;;;;27.67;54.83;98535.88;4433687;32;20094;-83
2023/08/21 04:48:41;;;;;;;14.18;9.15;;;;;;;27.49;55.62;98535.13;4435393;32;20089;-81
2023/08/21 04:51:07;;;;;;;14.50;9.00;;;;;;;28.06;53.88;98538.75;4436135;32;20097;-81
2023/08/21 04:53:34;;;;;;;14.40;9.25;;;;;;;27.85;54.77;98531.25;4435447;32;20073;-82
2023/08/21 04:56:01;;;;;;;15.45;9.63;;;;;;;27.98;54.70;98544.06;4435665;32;20062;-81
2023/08/21 04:58:29;;;;;;;14.95;9.48;;;;;;;27.81;55.40;98548.50;4435904;32;20110;-81
2023/08/21 05:00:55;;;;;;;13.90;9.32;;;;;;;27.58;55.84;98555.38;4422242;32;20164;-82
2023/08/21 05:03:23;;;;;;;13.65;9.25;;;;;;;28.06;54.92;98548.53;4436596;32;20081;-81
2023/08/21 05:05:59;;;;;;;14.70;9.18;;;;;;;28.15;54.81;98551.03;4436223;32;20096;-81
2023/08/21 05:08:26;;;;;;;13.32;8.75;;;;;;;28.39;54.07;98550.25;4423172;32;20090;-83
2023/08/21 05:11:00;;;;;;;13.73;8.68;;;;;;;28.22;55.08;98557.34;4437051;32;20069;-81
2023/08/21 05:13:27;;;;;;;13.68;8.35;;;;;;;29.30;52.94;98557.06;4436462;32;20050;-82
2023/08/21 05:15:57;;;;;;;12.30;8.02;;;;;;;30.31;49.89;98559.69;4436194;32;20080;-81
2023/08/21 05:18:25;;;;;;;13.45;8.00;;;;;;;31.66;47.06;98561.28;4436863;32;20722;-81
2023/08/21 05:20:54;;;;;;;12.65;7.57;;;;;;;32.45;44.46;98558.66;4436504;32;20089;-82
2023/08/21 05:23:21;;;;;;;15.35;8.00;;;;;;;33.37;42.76;98561.16;4435543;32;20168;-83
2023/08/21 05:25:48;;;;;;;12.88;7.57;;;;;;;34.36;41.35;98565.16;4435793;32;20130;-82
2023/08/21 05:28:15;;;;;;;12.68;7.65;;;;;;;34.99;39.65;98568.28;4435037;32;20141;-83
2023/08/21 05:30:42;;;;;;;11.40;7.00;;;;;;;35.20;39.24;98575.22;4434903;32;20106;-82
2023/08/21 05:33:10;;;;;;;11.88;7.78;;;;;;;36.31;37.11;98574.94;4422789;32;20057;-82
2023/08/21 05:35:38;;;;;;;14.23;8.45;;;;;;;36.87;35.86;98577.63;4436869;32;20062;-82
2023/08/21 05:38:05;;;;;;;12.52;7.62;;;;;;;37.15;35.01;98579.84;4437888;32;20116;-82
2023/08/21 05:40:32;;;;;;;11.98;7.53;;;;;;;37.96;34.52;98584.03;4437723;32;20145;-82
2023/08/21 05:42:59;;;;;;;12.73;7.72;;;;;;;38.25;34.91;98587.81;4438775;32;20082;-84
2023/08/21 05:45:39;;;;;;;14.05;7.57;;;;;;;37.99;36.32;98590.87;4438902;32;20076;-81
2023/08/21 05:48:06;;;;;;;14.32;7.03;;;;;;;37.30;37.80;98593.75;4435844;32;20142;-83
2023/08/21 05:50:36;;;;;;;13.68;7.80;;;;;;;36.09;40.19;98587.91;4428341;32;20436;-83
2023/08/21 05:53:04;;;;;;;11.45;7.60;;;;;;;35.96;40.53;98596.06;4413815;32;20112;-83
2023/08/21 05:55:31;;;;;;;14.68;7.72;;;;;;;36.35;40.36;98593.13;4427890;32;20089;-83
2023/08/21 05:57:58;;;;;;;10.45;7.07;;;;;;;37.46;38.16;98600.41;4429065;32;20116;-83
2023/08/21 06:00:25;;;;;;;13.45;7.53;;;;;;;37.40;38.66;98606.69;4416273;32;20134;-83
2023/08/21 06:02:52;;;;;;;15.00;7.60;;;;;;;37.02;39.20;98607.69;4430678;32;20388;-83
2023/08/21 06:05:19;;;;;;;13.05;7.90;;;;;;;36.73;39.15;98600.28;4431821;32;20062;-82
2023/08/21 06:07:46;;;;;;;14.98;7.78;;;;;;;36.11;40.57;98602.75;4432963;32;20146;-83
2023/08/21 06:10:14;;;;;;;14.13;7.97;;;;;;;35.77;40.72;98612.00;4432034;32;20105;-83
2023/08/21 06:12:41;;;;;;;12.48;7.93;;;;;;;35.87;39.35;98604.34;4429805;32;20104;-83
2023/08/21 06:15:09;;;;;;;11.90;7.15;;;;;;;36.06;39.16;98609.84;4430862;32;20098;-83
2023/08/21 06:17:37;;;;;;;11.57;7.68;;;;;;;36.20;39.00;98606.84;4431866;32;20086;-83
2023/08/21 06:20:05;;;;;;;11.12;7.37;;;;;;;36.59;36.88;98614.87;4428371;32;20109;-83
2023/08/21 06:22:32;;;;;;;10.43;7.20;;;;;;;37.33;35.71;98608.66;4428214;32;20103;-83
2023/08/21 06:24:59;;;;;;;12.40;7.50;;;;;;;36.06;35.99;98607.97;4428637;32;20112;-83
2023/08/21 06:27:26;;;;;;;11.68;7.80;;;;;;;36.00;35.75;98605.31;4430272;32;20098;-79
2023/08/21 06:29:53;;;;;;;11.32;7.47;;;;;;;36.84;34.96;98604.97;4425111;32;20195;-81
2023/08/21 06:32:20;;;;;;;13.30;7.35;;;;;;;36.12;35.83;98603.59;4411859;32;20081;-81
2023/08/21 06:34:47;;;;;;;12.05;7.32;;;;;;;35.91;35.54;98602.88;4426911;32;20550;-82
2023/08/21 06:37:15;;;;;;;10.75;7.30;;;;;;;36.21;34.69;98596.91;4433255;32;20063;-81
2023/08/21 06:39:42;;;;;;;11.18;7.68;;;;;;;36.60;34.62;98608.47;4479851;27;20105;-80
2023/08/21 06:42:10;;;;;;;11.48;7.47;;;;;;;37.72;32.36;98603.81;4435254;32;20064;-80
2023/08/21 06:44:37;;;;;;;10.00;6.78;;;;;;;38.69;31.78;98607.25;4437536;32;20090;-80
2023/08/21 06:47:06;;;;;;;11.50;7.03;;;;;;;39.16;29.98;98605.41;4438602;32;20070;-80
2023/08/21 06:49:32;;;;;;;11.18;7.07;;;;;;;39.68;29.07;98607.34;4439215;32;20058;-79
2023/08/21 06:51:59;;;;;;;11.82;7.20;;;;;;;39.97;28.36;98610.84;4438159;32;20148;-80
2023/08/21 06:54:26;;;;;;;10.45;6.93;;;;;;;39.16;30.51;98610.00;4433513;32;20055;-79
2023/08/21 06:56:53;;;;;;;11.12;7.30;;;;;;;39.66;29.90;98615.66;4431929;32;20098;-81
2023/08/21 06:59:20;;;;;;;12.85;7.43;;;;;;;40.18;28.80;98613.72;4426084;32;20151;-78
2023/08/21 07:01:47;;;;;;;10.80;7.03;;;;;;;40.61;28.55;98616.91;4437371;32;20094;-79
2023/08/21 07:04:14;;;;;;;12.82;7.30;;;;;;;40.85;27.46;98620.31;4436209;32;20110;-78
2023/08/21 07:06:47;;;;;;;10.65;6.55;;;;;;;39.58;28.99;98611.47;4438884;32;20093;-78
2023/08/21 07:09:14;;;;;;;11.85;6.87;;;;;;;38.91;29.62;98616.41;4436227;32;20073;-79
2023/08/21 07:11:41;;;;;;;10.18;6.90;;;;;;;37.88;31.77;98612.16;4436341;32;20165;-77
2023/08/21 07:14:08;;;;;;;10.82;7.32;;;;;;;38.38;31.61;98619.94;4437398;32;20081;-78
2023/08/21 07:16:37;;;;;;;10.80;7.10;;;;;;;38.55;30.63;98613.87;4437231;32;20070;-78
2023/08/21 07:19:04;;;;;;;9.88;6.85;;;;;;;38.38;32.13;98619.94;4438985;32;20053;-79
2023/08/21 07:21:31;;;;;;;12.70;7.43;;;;;;;37.33;32.65;98603.28;4437627;32;20797;-78
2023/08/21 07:24:00;;;;;;;11.80;7.53;;;;;;;39.00;30.66;98616.88;4435949;32;20062;-77
2023/08/21 07:26:28;;;;;;;11.27;7.43;;;;;;;38.65;30.39;98614.97;4422684;32;20070;-78
2023/08/21 07:28:55;;;;;;;13.45;8.65;;;;;;;39.03;30.17;98611.84;4433527;32;20813;-78
2023/08/21 07:31:22;;;;;;;10.40;6.82;;;;;;;38.96;30.33;98616.53;4435665;32;20069;-78
2023/08/21 07:33:50;;;;;;;11.32;7.45;;;;;;;39.22;29.45;98617.12;4437393;32;20078;-79
2023/08/21 07:36:17;;;;;;;13.75;6.97;;;;;;;38.43;31.12;98619.25;4433130;32;20102;-78
2023/08/21 07:38:44;;;;;;;11.00;7.47;;;;;;;37.42;32.47;98615.34;4432553;32;20070;-78
2023/08/21 07:41:12;;;;;;;10.82;7.40;;;;;;;38.80;31.07;98616.41;4431084;32;20478;-78
2023/08/21 07:43:41;;;;;;;11.52;7.20;;;;;;;36.29;35.08;98615.47;4421507;32;20070;-78
2023/08/21 07:46:12;;;;;;;12.02;7.93;;;;;;;35.02;36.05;98613.44;4430983;32;20114;-78
2023/08/21 07:48:39;;;;;;;11.45;7.62;;;;;;;35.76;34.15;98610.38;4430330;32;20702;-78
2023/08/21 07:51:06;;;;;;;14.15;7.30;;;;;;;34.70;35.66;98609.72;4430614;32;20100;-78
2023/08/21 07:53:34;;;;;;;10.77;7.15;;;;;;;35.83;34.94;98607.63;4429615;32;20078;-78
2023/08/21 07:56:03;;;;;;;10.77;7.47;;;;;;;34.05;37.49;98617.44;4428941;32;20467;-78
2023/08/21 07:58:31;;;;;;;12.93;7.62;;;;;;;34.81;36.07;98611.78;4431043;32;20062;-78
2023/08/21 08:00:59;;;;;;;12.02;7.68;;;;;;;35.42;34.84;98611.53;4432306;32;20161;-78
2023/08/21 08:03:26;;;;;;;12.82;7.80;;;;;;;35.81;35.42;98607.84;4419269;32;20076;-78
2023/08/21 08:05:53;;;;;;;11.27;7.40;;;;;;;36.10;34.31;98614.53;4433292;32;20133;-78
2023/08/21 08:08:22;;;;;;;13.65;7.80;;;;;;;36.63;32.70;98613.37;4433693;32;20101;-78
2023/08/21 08:10:49;;;;;;;14.63;7.82;;;;;;;37.51;34.44;98613.19;4438251;32;20061;-78
2023/08/21 08:13:16;;;;;;;15.77;8.00;;;;;;;38.07;30.77;98617.47;4425366;32;20082;-78
2023/08/21 08:15:48;;;;;;;11.10;7.45;;;;;;;38.19;30.92;98623.75;4439010;32;20468;-79
2023/08/21 08:18:15;;;;;;;11.90;6.80;;;;;;;39.93;28.13;98621.31;4438692;32;20770;-79
2023/08/21 08:20:42;;;;;;;11.05;7.32;;;;;;;39.60;28.54;98620.16;4439436;32;20074;-78
2023/08/21 08:23:09;;;;;;;11.85;7.12;;;;;;;39.45;28.96;98616.25;4438021;32;20085;-79
2023/08/21 08:25:36;;;;;;;10.23;7.22;;;;;;;39.16;29.47;98616.22;4436612;32;20141;-79
2023/08/21 08:28:03;;;;;;;12.40;7.10;;;;;;;39.46;28.35;98616.06;4438388;32;20078;-79
2023/08/21 08:30:30;;;;;;;10.95;7.05;;;;;;;40.20;27.46;98621.59;4440144;32;20106;-79
2023/08/21 08:32:57;;;;;;;12.52;7.47;;;;;;;38.82;30.46;98620.53;4439609;32;20115;-79
2023/08/21 08:35:26;;;;;;;11.30;7.18;;;;;;;37.13;30.75;98616.91;4439525;32;20066;-79
2023/08/21 08:37:53;;;;;;;11.45;7.37;;;;;;;39.32;27.16;98615.47;4438646;32;20620;-79
2023/08/21 08:40:20;;;;;;;11.10;7.53;;;;;;;40.40;26.35;98611.13;4440000;32;20065;-79
2023/08/21 08:42:47;;;;;;;13.18;7.32;;;;;;;40.99;25.89;98617.00;4440271;32;20062;-79
2023/08/21 08:45:14;;;;;;;11.48;7.68;;;;;;;41.53;25.33;98614.50;4435498;32;20134;-79
2023/08/21 08:47:41;;;;;;;12.00;7.00;;;;;;;41.44;26.10;98620.59;4435137;32;20129;-79
2023/08/21 08:50:09;;;;;;;12.45;7.30;;;;;;;41.88;26.09;98624.13;4434676;32;20103;-79
2023/08/21 08:52:38;;;;;;;14.13;7.15;;;;;;;40.06;28.06;98620.25;4427076;32;20058;-79
2023/08/21 08:55:09;;;;;;;11.12;7.37;;;;;;;39.25;29.28;98622.91;4440430;32;20081;-79
2023/08/21 08:57:36;;;;;;;12.32;6.87;;;;;;;41.26;26.08;98625.25;4440419;32;20121;-79
2023/08/21 09:00:04;;;;;;;11.27;7.18;;;;;;;41.95;25.44;98619.34;4439414;32;20049;-79
2023/08/21 09:02:31;;;;;;;10.52;6.60;;;;;;;39.31;27.85;98624.62;4439199;32;20095;-79
2023/08/21 09:04:58;;;;;;;12.02;7.72;;;;;;;39.10;28.86;98625.19;4431880;32;20058;-78
2023/08/21 09:07:28;;;;;;;11.77;7.18;;;;;;;40.28;27.26;98620.38;4433753;32;20061;-79
2023/08/21 09:09:55;;;;;;;11.40;7.18;;;;;;;41.78;25.53;98629.44;4434129;32;20053;-80
2023/08/21 09:12:22;;;;;;;11.50;7.15;;;;;;;42.07;25.33;98625.44;4430490;32;20085;-80
2023/08/21 09:14:49;;;;;;;11.40;7.50;;;;;;;41.92;26.52;98628.00;4426710;32;20425;-79
2023/08/21 09:17:16;;;;;;;13.52;7.43;;;;;;;42.43;24.12;98620.34;4419490;32;20129;-81
2023/08/21 09:19:44;;;;;;;11.45;7.35;;;;;;;42.69;25.61;98624.16;4439792;32;20094;-80
2023/08/21 09:22:15;;;;;;;10.65;7.15;;;;;;;43.59;24.09;98616.84;4440330;32;20100;-80
2023/08/21 09:25:00;;;;;;;15.07;7.62;;;;;;;44.11;23.23;98624.88;4423838;32;20096;-81
2023/08/21 09:27:29;;;;;;;10.85;6.75;;;;;;;44.37;22.05;98628.50;4434980;32;20797;-81
2023/08/21 09:29:57;;;;;;;9.90;6.62;;;;;;;43.47;22.18;98610.81;4422947;32;20078;-81
2023/08/21 09:32:24;;;;;;;12.90;7.30;;;;;;;43.91;22.33;98615.88;4436399;32;20098;-81
2023/08/21 09:34:51;;;;;;;10.75;6.62;;;;;;;40.01;27.47;98610.16;4433337;32;20054;-81
2023/08/21 09:37:18;;;;;;;10.50;6.35;;;;;;;41.32;25.46;98615.31;4433423;32;20093;-81
2023/08/21 09:39:46;;;;;;;11.60;6.97;;;;;;;37.89;28.91;98610.28;4439375;32;20113;-83
2023/08/21 09:42:15;;;;;;;11.38;6.90;;;;;;;39.72;26.65;98606.59;4439441;32;20050;-82
2023/08/21 09:44:43;;;;;;;11.05;6.43;;;;;;;41.29;25.20;98611.22;4440158;32;20070;-82
2023/08/21 09:47:18;;;;;;;10.18;6.25;;;;;;;42.10;24.75;98614.09;4440088;32;20066;-81
2023/08/21 09:49:45;;;;;;;10.50;6.70;;;;;;;41.74;24.31;98606.66;4439972;32;20062;-81
2023/08/21 09:52:13;;;;;;;11.50;7.20;;;;;;;39.16;27.74;98599.19;4426953;32;20160;-81
2023/08/21 09:54:42;;;;;;;10.25;6.70;;;;;;;40.03;27.37;98599.94;4440049;32;20085;-82
2023/08/21 09:57:09;;;;;;;11.15;7.12;;;;;;;41.74;24.96;98601.22;4439759;32;20113;-81
2023/08/21 09:59:38;;;;;;;10.93;6.78;;;;;;;41.91;25.12;98604.69;4427223;32;20093;-81
2023/08/21 10:02:06;;;;;;;12.48;7.47;;;;;;;41.47;25.26;98598.41;4427111;32;20081;-80
2023/08/21 10:04:34;;;;;;;9.75;6.60;;;;;;;40.90;25.19;98596.81;4439958;32;20245;-81
2023/08/21 10:07:19;;;;;;;11.43;6.80;;;;;;;41.60;24.90;98600.78;4439853;32;20070;-81
2023/08/21 10:09:46;;;;;;;11.50;7.55;;;;;;;41.86;26.10;98601.91;4439680;32;20101;-80
2023/08/21 10:12:14;;;;;;;12.43;7.53;;;;;;;41.97;24.66;98600.13;4440039;32;20066;-81
2023/08/21 10:14:42;;;;;;;10.60;7.37;;;;;;;41.59;25.15;98591.00;4427144;32;20097;-81
2023/08/21 10:17:16;;;;;;;13.25;6.97;;;;;;;42.06;24.34;98590.44;4438347;32;20073;-81
2023/08/21 10:19:50;;;;;;;10.95;7.60;;;;;;;41.45;25.59;98582.44;4427070;32;20073;-81
2023/08/21 10:22:39;;;;;;;10.20;6.78;;;;;;;42.03;24.08;98585.56;4439905;32;20110;-81
2023/08/21 10:25:23;;;;;;;13.15;7.45;;;;;;;41.51;24.97;98577.91;4426617;32;20085;-81
2023/08/21 10:27:58;;;;;;;10.98;6.95;;;;;;;42.41;25.05;98588.06;4439820;32;20078;-81
2023/08/21 10:30:26;;;;;;;11.20;6.93;;;;;;;42.17;25.20;98586.78;4439417;32;20106;-81
2023/08/21 10:32:56;;;;;;;10.15;7.10;;;;;;;41.79;26.02;98585.84;4426949;32;20062;-81
2023/08/21 10:35:28;;;;;;;10.75;7.50;;;;;;;41.94;25.84;98585.19;4439541;32;20127;-82
2023/08/21 10:38:10;;;;;;;12.60;7.43;;;;;;;40.46;26.65;98583.13;4439306;32;20121;-81
2023/08/21 10:40:41;;;;;;;10.50;6.90;;;;;;;41.13;25.82;98584.97;4438602;32;20062;-81
2023/08/21 10:43:43;;;;;;;11.68;6.82;;;;;;;40.84;26.57;98578.06;4439767;32;20092;-80
2023/08/21 10:46:25;;;;;;;10.57;6.87;;;;;;;39.96;25.99;98588.41;4439274;32;20088;-80
2023/08/21 10:48:52;;;;;;;10.45;6.72;;;;;;;40.59;25.89;98590.09;4439578;32;20078;-80
2023/08/21 10:51:19;;;;;;;10.23;6.72;;;;;;;41.67;23.58;98582.41;4439036;32;20097;-80
2023/08/21 10:53:46;;;;;;;10.68;7.22;;;;;;;41.69;23.52;98580.31;4439437;32;20113;-81
2023/08/21 10:56:17;;;;;;;10.07;6.57;;;;;;;42.40;23.59;98585.63;4439442;32;20077;-81
2023/08/21 10:58:47;;;;;;;12.30;7.10;;;;;;;41.98;23.49;98572.75;4438925;32;20085;-81
2023/08/21 11:01:15;;;;;;;10.40;6.80;;;;;;;42.02;23.13;98584.72;4439357;32;20054;-81
2023/08/21 11:03:47;;;;;;;9.65;6.78;;;;;;;42.39;23.67;98589.41;4439345;32;20078;-81
2023/08/21 11:06:21;;;;;;;12.63;7.05;;;;;;;43.13;22.00;98581.28;4425781;32;20084;-81
2023/08/21 11:08:47;;;;;;;10.70;7.22;;;;;;;42.63;22.83;98582.56;4439280;32;20078;-80
2023/08/21 11:11:16;;;;;;;11.55;7.00;;;;;;;40.52;26.12;98570.53;4438207;32;20092;-82
2023/08/21 11:13:52;;;;;;;11.55;7.68;;;;;;;39.59;26.56;98566.38;4438857;32;20094;-80
2023/08/21 11:16:24;;;;;;;12.32;7.78;;;;;;;38.65;28.34;98571.81;4439172;32;20122;-80
2023/08/21 11:18:51;;;;;;;11.25;8.10;;;;;;;40.73;26.98;98564.38;4434585;32;147704;-81
2023/08/21 11:21:18;;;;;;;11.27;7.78;;;;;;;42.38;24.63;98575.03;4438800;32;20102;-81
2023/08/21 11:23:45;;;;;;;10.80;7.55;;;;;;;42.27;23.95;98564.38;4438416;32;20062;-82
2023/08/21 11:26:21;;;;;;;12.98;8.27;;;;;;;43.19;23.40;98566.69;4438574;32;20125;-81
2023/08/21 11:28:48;;;;;;;12.02;8.00;;;;;;;40.45;27.16;98567.16;4439897;32;20092;-81